createdAt,value
2023-02-28T00:00:34.804Z,49.47
2023-02-28T00:01:35.045Z,49.15
2023-02-28T00:02:34.845Z,49.63
2023-02-28T00:03:35.054Z,49.47
2023-02-28T00:04:34.825Z,49.63
2023-02-28T00:05:34.992Z,49.47
2023-02-28T00:06:34.937Z,49.95
2023-02-28T00:07:34.886Z,50.11
2023-02-28T00:08:34.848Z,49.95
2023-02-28T00:09:34.966Z,50.11
2023-02-28T00:10:34.966Z,49.63
2023-02-28T00:11:34.956Z,49.79
2023-02-28T00:12:34.808Z,49.95
2023-02-28T00:13:35.078Z,49.63
2023-02-28T00:14:34.979Z,49.63
2023-02-28T00:15:34.649Z,49.63
2023-02-28T00:16:34.892Z,49.63
2023-02-28T00:17:34.652Z,49.79
2023-02-28T00:18:34.795Z,49.79
2023-02-28T00:19:34.652Z,49.79
2023-02-28T00:20:34.858Z,49.79
2023-02-28T00:21:34.682Z,50.11
2023-02-28T00:22:34.829Z,50.11
2023-02-28T00:23:34.587Z,50.27
2023-02-28T00:24:34.732Z,49.95
2023-02-28T00:25:34.729Z,49.95
2023-02-28T00:26:34.738Z,49.95
2023-02-28T00:27:34.608Z,49.95
2023-02-28T00:28:34.759Z,50.11
2023-02-28T00:29:34.658Z,49.95
2023-02-28T00:30:34.575Z,50.27
2023-02-28T00:31:34.656Z,50.11
2023-02-28T00:32:34.517Z,51.88
2023-02-28T00:33:34.597Z,51.08
2023-02-28T00:34:34.486Z,49.95
2023-02-28T00:35:34.898Z,48.18
2023-02-28T00:36:34.547Z,49.95
2023-02-28T00:37:34.627Z,50.27
2023-02-28T00:38:34.616Z,50.11
2023-02-28T00:39:34.717Z,50.11
2023-02-28T00:40:34.566Z,50.11
2023-02-28T00:41:34.586Z,49.79
2023-02-28T00:42:34.524Z,49.95
2023-02-28T00:43:34.550Z,50.11
2023-02-28T00:44:34.466Z,50.11
2023-02-28T00:45:34.639Z,49.95
2023-02-28T00:46:34.466Z,50.11
2023-02-28T00:47:34.366Z,50.27
2023-02-28T00:48:34.457Z,50.43
2023-02-28T00:49:34.507Z,49.95
2023-02-28T00:50:34.498Z,50.11
2023-02-28T00:51:34.526Z,49.79
2023-02-28T00:52:34.485Z,49.79
2023-02-28T00:53:34.305Z,50.11
2023-02-28T00:54:34.436Z,49.95
2023-02-28T00:55:34.310Z,50.27
2023-02-28T00:56:34.475Z,49.95
2023-02-28T00:57:34.525Z,49.95
2023-02-28T00:58:34.378Z,49.63
2023-02-28T00:59:34.396Z,49.95
2023-02-28T01:00:34.376Z,50.11
2023-02-28T01:01:34.455Z,50.43
2023-02-28T01:02:34.204Z,50.27
2023-02-28T01:03:34.455Z,50.27
2023-02-28T01:04:34.211Z,50.27
2023-02-28T01:05:34.295Z,50.27
2023-02-28T01:06:34.285Z,50.27
2023-02-28T01:07:34.476Z,50.27
2023-02-28T01:08:34.284Z,49.47
2023-02-28T01:09:34.345Z,50.43
2023-02-28T01:10:34.196Z,50.27
2023-02-28T01:11:34.247Z,50.27
2023-02-28T01:12:34.205Z,50.43
2023-02-28T01:13:34.286Z,50.11
2023-02-28T01:14:34.216Z,50.43
2023-02-28T01:15:34.325Z,50.43
2023-02-28T01:16:34.196Z,50.27
2023-02-28T01:17:34.296Z,50.60
2023-02-28T01:18:34.162Z,50.43
2023-02-28T01:19:34.091Z,52.69
2023-02-28T01:20:34.190Z,52.05
2023-02-28T01:21:34.110Z,51.72
2023-02-28T01:22:34.186Z,51.72
2023-02-28T01:23:34.029Z,51.56
2023-02-28T01:24:34.570Z,50.27
2023-02-28T01:25:34.087Z,48.50
2023-02-28T01:26:34.107Z,50.27
2023-02-28T01:27:34.103Z,50.11
2023-02-28T01:28:34.116Z,50.43
2023-02-28T01:29:34.139Z,50.43
2023-02-28T01:30:34.221Z,50.43
2023-02-28T01:31:34.113Z,50.43
2023-02-28T01:32:34.107Z,50.76
2023-02-28T01:33:34.003Z,50.76
2023-02-28T01:34:33.807Z,50.92
2023-02-28T01:35:34.032Z,50.76
2023-02-28T01:36:33.816Z,50.76
2023-02-28T01:37:34.097Z,50.60
2023-02-28T01:38:33.837Z,50.27
2023-02-28T01:39:34.113Z,50.43
2023-02-28T01:40:33.813Z,50.27
2023-02-28T01:41:33.947Z,50.76
2023-02-28T01:42:33.814Z,50.60
2023-02-28T01:43:33.963Z,50.60
2023-02-28T01:44:33.873Z,50.60
2023-02-28T01:45:33.981Z,50.76
2023-02-28T01:46:33.939Z,50.60
2023-02-28T01:47:33.882Z,50.60
2023-02-28T01:48:33.912Z,50.76
2023-02-28T01:49:33.663Z,50.43
2023-02-28T01:50:33.882Z,50.27
2023-02-28T01:51:33.843Z,50.43
2023-02-28T01:52:33.864Z,50.43
2023-02-28T01:53:33.693Z,50.27
2023-02-28T01:54:33.881Z,50.11
2023-02-28T01:55:33.760Z,51.56
2023-02-28T01:56:34.415Z,50.60
2023-02-28T01:57:33.709Z,50.60
2023-02-28T01:58:33.990Z,50.43
2023-02-28T01:59:33.800Z,50.60
2023-02-28T02:00:33.822Z,50.43
2023-02-28T02:01:33.827Z,50.43
2023-02-28T02:02:33.812Z,50.60
2023-02-28T02:03:33.719Z,50.60
2023-02-28T02:04:33.812Z,50.43
2023-02-28T02:05:33.731Z,50.43
2023-02-28T02:06:33.601Z,50.27
2023-02-28T02:07:33.670Z,50.11
2023-02-28T02:08:33.527Z,51.24
2023-02-28T02:09:33.740Z,50.43
2023-02-28T02:10:33.540Z,50.43
2023-02-28T02:11:33.791Z,50.43
2023-02-28T02:12:33.554Z,50.43
2023-02-28T02:13:33.740Z,50.43
2023-02-28T02:14:33.510Z,50.43
2023-02-28T02:15:33.731Z,50.60
2023-02-28T02:16:33.553Z,50.43
2023-02-28T02:17:33.806Z,50.43
2023-02-28T02:18:33.586Z,50.43
2023-02-28T02:19:33.653Z,50.27
2023-02-28T02:20:33.481Z,50.27
2023-02-28T02:21:35.642Z,49.63
2023-02-28T02:22:33.501Z,50.43
2023-02-28T02:23:33.404Z,50.27
2023-02-28T02:24:33.511Z,50.76
2023-02-28T02:25:33.360Z,50.60
2023-02-28T02:26:33.491Z,50.43
2023-02-28T02:27:33.435Z,50.27
2023-02-28T02:28:33.461Z,50.43
2023-02-28T02:29:33.406Z,50.43
2023-02-28T02:30:33.429Z,50.43
2023-02-28T02:31:33.580Z,50.27
2023-02-28T02:32:33.502Z,50.27
2023-02-28T02:33:33.410Z,50.27
2023-02-28T02:34:33.429Z,50.43
2023-02-28T02:35:33.450Z,50.27
2023-02-28T02:36:33.392Z,50.43
2023-02-28T02:37:33.367Z,50.43
2023-02-28T02:38:33.264Z,50.43
2023-02-28T02:39:33.525Z,50.60
2023-02-28T02:40:33.396Z,50.76
2023-02-28T02:41:33.440Z,50.43
2023-02-28T02:42:33.248Z,50.27
2023-02-28T02:43:33.459Z,50.27
2023-02-28T02:44:33.171Z,50.43
2023-02-28T02:45:33.419Z,53.01
2023-02-28T02:46:33.221Z,50.92
2023-02-28T02:47:33.300Z,50.60
2023-02-28T02:48:33.214Z,50.43
2023-02-28T02:49:33.350Z,50.43
2023-02-28T02:50:33.182Z,50.60
2023-02-28T02:51:33.241Z,50.76
2023-02-28T02:52:33.248Z,50.60
2023-02-28T02:53:33.050Z,50.43
2023-02-28T02:54:33.214Z,50.60
2023-02-28T02:55:33.122Z,50.60
2023-02-28T02:56:33.233Z,50.60
2023-02-28T02:57:33.002Z,50.43
2023-02-28T02:58:33.237Z,50.60
2023-02-28T02:59:33.051Z,50.27
2023-02-28T03:00:33.267Z,50.43
2023-02-28T03:01:33.156Z,53.33
2023-02-28T03:02:33.170Z,50.92
2023-02-28T03:03:33.053Z,50.60
2023-02-28T03:04:33.092Z,50.76
2023-02-28T03:05:33.121Z,50.43
2023-02-28T03:06:33.081Z,50.27
2023-02-28T03:07:33.063Z,51.08
2023-02-28T03:08:33.070Z,50.76
2023-02-28T03:09:33.001Z,51.40
2023-02-28T03:10:32.941Z,50.11
2023-02-28T03:11:32.992Z,50.27
2023-02-28T03:12:33.081Z,50.60
2023-02-28T03:13:33.062Z,50.27
2023-02-28T03:14:32.884Z,50.43
2023-02-28T03:15:33.031Z,50.43
2023-02-28T03:16:32.982Z,51.56
2023-02-28T03:17:32.984Z,51.08
2023-02-28T03:18:32.821Z,50.92
2023-02-28T03:19:33.022Z,50.43
2023-02-28T03:20:32.862Z,50.60
2023-02-28T03:21:33.023Z,50.60
2023-02-28T03:22:32.934Z,50.60
2023-02-28T03:23:33.018Z,50.43
2023-02-28T03:24:32.966Z,50.43
2023-02-28T03:25:32.733Z,50.27
2023-02-28T03:26:32.945Z,50.43
2023-02-28T03:27:32.795Z,50.43
2023-02-28T03:28:33.076Z,50.43
2023-02-28T03:29:32.760Z,50.43
2023-02-28T03:30:32.903Z,50.27
2023-02-28T03:31:33.115Z,50.43
2023-02-28T03:32:32.822Z,50.76
2023-02-28T03:33:32.838Z,50.92
2023-02-28T03:34:32.844Z,53.50
2023-02-28T03:35:32.791Z,50.27
2023-02-28T03:36:32.876Z,50.76
2023-02-28T03:37:32.835Z,50.60
2023-02-28T03:38:33.033Z,50.76
2023-02-28T03:39:32.825Z,50.27
2023-02-28T03:40:32.526Z,50.60
2023-02-28T03:41:32.787Z,50.27
2023-02-28T03:42:32.670Z,52.69
2023-02-28T03:43:32.690Z,51.24
2023-02-28T03:44:32.645Z,50.92
2023-02-28T03:45:32.831Z,50.11
2023-02-28T03:46:32.538Z,50.27
2023-02-28T03:47:32.828Z,50.76
2023-02-28T03:48:32.630Z,50.60
2023-02-28T03:49:32.706Z,50.60
2023-02-28T03:50:32.668Z,52.21
2023-02-28T03:51:32.646Z,50.60
2023-02-28T03:52:32.607Z,50.43
2023-02-28T03:53:32.649Z,50.27
2023-02-28T03:54:32.568Z,50.43
2023-02-28T03:55:32.468Z,53.50
2023-02-28T03:56:32.587Z,50.92
2023-02-28T03:57:32.416Z,50.76
2023-02-28T03:58:32.581Z,54.79
2023-02-28T03:59:32.377Z,51.08
2023-02-28T04:00:32.587Z,50.92
2023-02-28T04:01:32.799Z,50.92
2023-02-28T04:02:32.568Z,50.92
2023-02-28T04:03:32.486Z,50.92
2023-02-28T04:04:32.510Z,64.29
2023-02-28T04:05:32.384Z,50.92
2023-02-28T04:06:32.490Z,51.56
2023-02-28T04:07:32.474Z,50.60
2023-02-28T04:08:32.445Z,50.43
2023-02-28T04:09:32.388Z,50.76
2023-02-28T04:10:32.455Z,50.76
2023-02-28T04:11:32.414Z,50.60
2023-02-28T04:12:32.276Z,50.76
2023-02-28T04:13:32.475Z,50.27
2023-02-28T04:14:32.313Z,50.27
2023-02-28T04:15:32.431Z,50.27
2023-02-28T04:16:35.323Z,50.92
2023-02-28T04:17:32.419Z,48.66
2023-02-28T04:18:32.276Z,51.08
2023-02-28T04:19:32.413Z,50.27
2023-02-28T04:20:32.424Z,53.33
2023-02-28T04:21:32.808Z,51.56
2023-02-28T04:22:32.226Z,50.27
2023-02-28T04:23:32.317Z,51.88
2023-02-28T04:24:32.319Z,50.60
2023-02-28T04:25:32.441Z,57.52
2023-02-28T04:26:32.254Z,50.76
2023-02-28T04:27:32.825Z,50.11
2023-02-28T04:28:32.309Z,50.43
2023-02-28T04:29:32.276Z,50.60
2023-02-28T04:30:32.646Z,55.43
2023-02-28T04:31:32.560Z,51.24
2023-02-28T04:32:32.233Z,50.60
2023-02-28T04:33:32.176Z,50.76
2023-02-28T04:34:32.229Z,50.92
2023-02-28T04:35:32.146Z,51.40
2023-02-28T04:36:32.236Z,50.76
2023-02-28T04:37:32.128Z,50.60
2023-02-28T04:38:32.234Z,50.43
2023-02-28T04:39:32.086Z,50.76
2023-02-28T04:40:32.166Z,50.92
2023-02-28T04:41:32.881Z,57.20
2023-02-28T04:42:32.097Z,51.24
2023-02-28T04:43:32.126Z,50.60
2023-02-28T04:44:31.983Z,50.60
2023-02-28T04:45:32.105Z,51.72
2023-02-28T04:46:31.923Z,50.92
2023-02-28T04:47:32.084Z,50.92
2023-02-28T04:48:31.926Z,58.01
2023-02-28T04:49:32.106Z,57.36
2023-02-28T04:50:31.922Z,51.56
2023-02-28T04:51:32.147Z,52.05
2023-02-28T04:52:31.901Z,50.76
2023-02-28T04:53:32.035Z,51.08
2023-02-28T04:54:31.905Z,50.92
2023-02-28T04:55:32.242Z,50.76
2023-02-28T04:56:31.902Z,51.24
2023-02-28T04:57:31.953Z,53.33
2023-02-28T04:58:31.941Z,51.72
2023-02-28T04:59:31.815Z,50.92
2023-02-28T05:00:31.913Z,51.56
2023-02-28T05:01:32.168Z,51.72
2023-02-28T05:02:32.177Z,81.53
2023-02-28T05:03:31.829Z,51.24
2023-02-28T05:04:31.987Z,51.08
2023-02-28T05:05:31.790Z,51.24
2023-02-28T05:06:32.096Z,50.92
2023-02-28T05:07:31.750Z,51.56
2023-02-28T05:08:31.870Z,52.21
2023-02-28T05:09:31.783Z,51.08
2023-02-28T05:10:31.860Z,50.76
2023-02-28T05:11:32.176Z,51.40
2023-02-28T05:12:31.924Z,50.92
2023-02-28T05:13:31.771Z,50.92
2023-02-28T05:14:31.602Z,51.08
2023-02-28T05:15:32.472Z,52.21
2023-02-28T05:16:31.670Z,51.08
2023-02-28T05:17:31.729Z,51.24
2023-02-28T05:18:31.636Z,51.08
2023-02-28T05:19:31.701Z,51.08
2023-02-28T05:20:31.658Z,51.72
2023-02-28T05:21:32.110Z,51.88
2023-02-28T05:22:31.720Z,50.76
2023-02-28T05:23:31.815Z,51.72
2023-02-28T05:24:31.620Z,51.40
2023-02-28T05:25:31.729Z,52.53
2023-02-28T05:26:31.599Z,51.08
2023-02-28T05:27:31.810Z,51.40
2023-02-28T05:28:31.582Z,51.88
2023-02-28T05:29:31.651Z,75.89
2023-02-28T05:30:31.722Z,51.56
2023-02-28T05:31:31.849Z,51.40
2023-02-28T05:32:31.722Z,51.56
2023-02-28T05:33:31.388Z,52.37
2023-02-28T05:34:31.609Z,52.69
2023-02-28T05:35:31.458Z,64.13
2023-02-28T05:36:31.799Z,61.55
2023-02-28T05:37:31.458Z,51.72
2023-02-28T05:38:31.548Z,51.24
2023-02-28T05:39:31.549Z,51.08
2023-02-28T05:40:31.498Z,52.53
2023-02-28T05:41:31.903Z,52.05
2023-02-28T05:42:31.539Z,51.56
2023-02-28T05:43:31.645Z,54.14
2023-02-28T05:44:31.512Z,52.53
2023-02-28T05:45:31.477Z,51.72
2023-02-28T05:46:31.349Z,60.91
2023-02-28T05:47:31.393Z,51.24
2023-02-28T05:48:31.345Z,58.65
2023-02-28T05:49:31.634Z,54.95
2023-02-28T05:50:31.318Z,53.17
2023-02-28T05:51:32.078Z,53.33
2023-02-28T05:52:31.333Z,54.95
2023-02-28T05:53:31.389Z,53.33
2023-02-28T05:54:31.291Z,68.00
2023-02-28T05:55:31.421Z,56.56
2023-02-28T05:56:31.271Z,55.27
2023-02-28T05:57:31.483Z,53.82
2023-02-28T05:58:31.401Z,74.60
2023-02-28T05:59:31.400Z,53.82
2023-02-28T06:00:31.261Z,54.14
2023-02-28T06:01:31.270Z,54.46
2023-02-28T06:02:31.708Z,76.38
2023-02-28T06:03:31.388Z,54.30
2023-02-28T06:04:32.325Z,63.97
2023-02-28T06:05:31.183Z,77.83
2023-02-28T06:06:31.275Z,77.18
2023-02-28T06:07:31.468Z,67.19
2023-02-28T06:08:31.407Z,65.90
2023-02-28T06:09:31.097Z,66.39
2023-02-28T06:10:31.319Z,66.55
2023-02-28T06:11:31.397Z,66.39
2023-02-28T06:12:31.278Z,67.35
2023-02-28T06:13:31.393Z,66.39
2023-02-28T06:14:31.222Z,66.55
2023-02-28T06:15:31.154Z,66.55
2023-02-28T06:16:31.042Z,66.55
2023-02-28T06:17:31.145Z,67.51
2023-02-28T06:18:31.504Z,67.35
2023-02-28T06:19:31.210Z,69.13
2023-02-28T06:20:30.925Z,97.16
2023-02-28T06:21:31.437Z,65.26
2023-02-28T06:22:31.034Z,66.39
2023-02-28T06:23:31.105Z,65.74
2023-02-28T06:24:31.074Z,65.58
2023-02-28T06:25:31.140Z,63.97
2023-02-28T06:26:30.954Z,68.80
2023-02-28T06:27:31.035Z,64.45
2023-02-28T06:28:30.990Z,61.71
2023-02-28T06:29:31.027Z,56.72
2023-02-28T06:30:31.075Z,59.78
2023-02-28T06:31:31.546Z,59.94
2023-02-28T06:32:30.985Z,53.98
2023-02-28T06:33:30.847Z,54.95
2023-02-28T06:34:30.187Z,79.76
2023-02-28T06:35:30.887Z,86.85
2023-02-28T06:36:31.045Z,90.07
2023-02-28T06:37:30.836Z,86.04
2023-02-28T06:38:31.086Z,85.40
2023-02-28T06:39:30.956Z,93.94
2023-02-28T06:40:30.957Z,89.91
2023-02-28T06:41:38.413Z,90.88
2023-02-28T06:42:30.936Z,89.43
2023-02-28T06:43:30.777Z,89.59
2023-02-28T06:44:30.893Z,96.04
2023-02-28T06:45:31.146Z,93.13
2023-02-28T06:46:30.962Z,85.88
2023-02-28T06:47:30.802Z,82.98
2023-02-28T06:48:30.837Z,78.47
2023-02-28T06:49:31.608Z,85.88
2023-02-28T06:50:30.730Z,77.83
2023-02-28T06:51:31.294Z,76.70
2023-02-28T06:52:31.067Z,65.74
2023-02-28T06:53:30.829Z,77.02
2023-02-28T06:54:30.668Z,78.47
2023-02-28T06:55:30.893Z,75.73
2023-02-28T06:56:30.670Z,75.25
2023-02-28T06:57:30.788Z,79.44
2023-02-28T06:58:30.676Z,79.12
2023-02-28T06:59:30.749Z,76.38
2023-02-28T07:00:30.717Z,77.18
2023-02-28T07:01:31.173Z,69.13
2023-02-28T07:02:30.731Z,70.90
2023-02-28T07:03:32.215Z,75.57
2023-02-28T07:04:30.698Z,74.12
2023-02-28T07:05:30.552Z,75.09
2023-02-28T07:06:30.713Z,75.09
2023-02-28T07:07:30.817Z,76.38
2023-02-28T07:08:30.736Z,74.60
2023-02-28T07:09:30.450Z,82.98
2023-02-28T07:10:30.674Z,72.03
2023-02-28T07:11:30.864Z,75.89
2023-02-28T07:12:30.677Z,75.41
2023-02-28T07:13:30.468Z,71.87
2023-02-28T07:14:30.623Z,74.12
2023-02-28T07:15:30.512Z,75.25
2023-02-28T07:16:30.703Z,74.60
2023-02-28T07:17:30.572Z,77.34
2023-02-28T07:18:30.399Z,73.80
2023-02-28T07:19:30.650Z,64.61
2023-02-28T07:20:30.305Z,66.39
2023-02-28T07:21:30.998Z,65.58
2023-02-28T07:22:30.371Z,71.06
2023-02-28T07:23:30.500Z,87.66
2023-02-28T07:24:30.440Z,73.48
2023-02-28T07:25:30.522Z,75.57
2023-02-28T07:26:30.329Z,74.77
2023-02-28T07:27:30.481Z,77.83
2023-02-28T07:28:30.450Z,66.71
2023-02-28T07:29:30.515Z,67.19
2023-02-28T07:30:30.385Z,67.68
2023-02-28T07:31:30.736Z,74.77
2023-02-28T07:32:30.431Z,67.03
2023-02-28T07:33:30.419Z,65.58
2023-02-28T07:34:30.280Z,66.55
2023-02-28T07:35:30.235Z,66.55
2023-02-28T07:36:30.343Z,72.35
2023-02-28T07:37:30.173Z,67.51
2023-02-28T07:38:30.586Z,75.25
2023-02-28T07:39:30.292Z,68.48
2023-02-28T07:40:30.364Z,74.28
2023-02-28T07:41:30.487Z,73.80
2023-02-28T07:42:30.644Z,74.93
2023-02-28T07:43:30.384Z,75.09
2023-02-28T07:44:30.364Z,89.91
2023-02-28T07:45:30.315Z,86.53
2023-02-28T07:46:30.985Z,83.63
2023-02-28T07:47:30.146Z,87.98
2023-02-28T07:48:30.307Z,75.73
2023-02-28T07:49:31.027Z,77.50
2023-02-28T07:50:30.018Z,77.99
2023-02-28T07:51:30.717Z,75.09
2023-02-28T07:52:30.059Z,84.59
2023-02-28T07:53:30.198Z,89.11
2023-02-28T07:54:30.147Z,75.09
2023-02-28T07:55:30.242Z,74.44
2023-02-28T07:56:30.416Z,73.96
2023-02-28T07:57:30.228Z,67.84
2023-02-28T07:58:30.213Z,66.55
2023-02-28T07:59:32.254Z,56.07
2023-02-28T08:00:30.245Z,53.17
2023-02-28T08:01:30.458Z,45.44
2023-02-28T08:02:30.053Z,45.76
2023-02-28T08:03:30.039Z,49.95
2023-02-28T08:04:30.226Z,46.57
2023-02-28T08:05:29.911Z,44.63
2023-02-28T08:06:30.002Z,44.63
2023-02-28T08:07:29.829Z,47.37
2023-02-28T08:08:30.061Z,64.29
2023-02-28T08:09:29.950Z,59.62
2023-02-28T08:10:30.079Z,43.83
2023-02-28T08:11:30.292Z,45.60
2023-02-28T08:12:30.158Z,45.60
2023-02-28T08:13:30.048Z,46.57
2023-02-28T08:14:29.979Z,44.15
2023-02-28T08:15:29.937Z,48.50
2023-02-28T08:16:30.167Z,46.08
2023-02-28T08:17:29.918Z,84.27
2023-02-28T08:18:30.015Z,83.63
2023-02-28T08:19:29.838Z,82.02
2023-02-28T08:20:30.000Z,79.12
2023-02-28T08:21:30.267Z,70.74
2023-02-28T08:22:29.737Z,82.98
2023-02-28T08:23:29.819Z,84.11
2023-02-28T08:24:29.736Z,77.02
2023-02-28T08:25:29.927Z,74.28
2023-02-28T08:26:29.930Z,75.09
2023-02-28T08:27:29.829Z,75.89
2023-02-28T08:28:29.787Z,85.40
2023-02-28T08:29:29.787Z,82.50
2023-02-28T08:30:31.727Z,72.67
2023-02-28T08:31:30.231Z,76.38
2023-02-28T08:32:30.617Z,75.25
2023-02-28T08:33:29.968Z,75.89
2023-02-28T08:34:29.719Z,81.53
2023-02-28T08:35:30.005Z,70.58
2023-02-28T08:36:30.032Z,69.93
2023-02-28T08:37:29.627Z,76.05
2023-02-28T08:38:29.788Z,67.51
2023-02-28T08:39:29.589Z,79.12
2023-02-28T08:40:29.809Z,75.73
2023-02-28T08:41:29.951Z,73.96
2023-02-28T08:42:30.278Z,73.80
2023-02-28T08:43:29.507Z,73.64
2023-02-28T08:44:29.669Z,68.64
2023-02-28T08:45:29.580Z,72.51
2023-02-28T08:46:29.786Z,76.70
2023-02-28T08:47:29.553Z,72.51
2023-02-28T08:48:29.627Z,68.80
2023-02-28T08:49:29.533Z,65.42
2023-02-28T08:50:29.666Z,76.05
2023-02-28T08:51:29.850Z,74.12
2023-02-28T08:52:29.492Z,67.68
2023-02-28T08:53:29.523Z,64.13
2023-02-28T08:54:29.552Z,74.28
2023-02-28T08:55:29.533Z,72.51
2023-02-28T08:56:29.363Z,76.05
2023-02-28T08:57:29.578Z,64.45
2023-02-28T08:58:29.365Z,73.15
2023-02-28T08:59:29.511Z,72.99
2023-02-28T09:00:29.411Z,71.54
2023-02-28T09:01:30.021Z,65.58
2023-02-28T09:02:29.441Z,72.67
2023-02-28T09:03:29.658Z,69.13
2023-02-28T09:04:29.333Z,66.39
2023-02-28T09:05:29.477Z,67.51
2023-02-28T09:06:29.799Z,69.45
2023-02-28T09:07:29.242Z,49.79
2023-02-28T09:08:29.391Z,46.25
2023-02-28T09:09:29.281Z,47.21
2023-02-28T09:10:29.396Z,56.88
2023-02-28T09:11:29.210Z,49.79
2023-02-28T09:12:29.877Z,46.08
2023-02-28T09:13:29.209Z,46.73
2023-02-28T09:14:29.410Z,57.69
2023-02-28T09:15:29.261Z,45.44
2023-02-28T09:16:29.324Z,61.23
2023-02-28T09:17:30.650Z,60.10
2023-02-28T09:18:29.319Z,74.12
2023-02-28T09:19:29.185Z,68.00
2023-02-28T09:20:29.353Z,53.82
2023-02-28T09:21:29.646Z,45.60
2023-02-28T09:22:29.039Z,52.05
2023-02-28T09:23:29.310Z,82.50
2023-02-28T09:24:29.030Z,52.69
2023-02-28T09:25:29.373Z,53.01
2023-02-28T09:26:34.982Z,51.88
2023-02-28T09:27:29.313Z,51.08
2023-02-28T09:28:29.274Z,55.27
2023-02-28T09:29:29.462Z,62.04
2023-02-28T09:30:29.096Z,61.71
2023-02-28T09:31:29.212Z,62.84
2023-02-28T09:32:29.053Z,61.87
2023-02-28T09:33:29.141Z,60.75
2023-02-28T09:34:29.074Z,59.94
2023-02-28T09:35:29.314Z,58.33
2023-02-28T09:36:43.217Z,70.42
2023-02-28T09:37:28.892Z,53.50
2023-02-28T09:38:29.043Z,58.01
2023-02-28T09:39:29.063Z,56.56
2023-02-28T09:40:29.033Z,61.87
2023-02-28T09:41:29.044Z,58.97
2023-02-28T09:42:29.010Z,58.01
2023-02-28T09:43:28.875Z,55.91
2023-02-28T09:44:29.085Z,53.66
2023-02-28T09:45:28.953Z,55.75
2023-02-28T09:46:29.253Z,53.17
2023-02-28T09:47:29.111Z,58.49
2023-02-28T09:48:28.974Z,62.20
2023-02-28T09:49:28.984Z,61.71
2023-02-28T09:50:28.993Z,54.62
2023-02-28T09:51:29.455Z,60.91
2023-02-28T09:52:28.686Z,57.85
2023-02-28T09:53:28.886Z,52.05
2023-02-28T09:54:28.795Z,50.27
2023-02-28T09:55:28.967Z,53.50
2023-02-28T09:56:29.069Z,53.50
2023-02-28T09:57:29.064Z,51.56
2023-02-28T09:58:28.843Z,49.15
2023-02-28T09:59:28.933Z,50.76
2023-02-28T10:00:28.762Z,51.88
2023-02-28T10:01:29.270Z,53.82
2023-02-28T10:02:28.774Z,53.98
2023-02-28T10:03:28.885Z,54.46
2023-02-28T10:04:28.744Z,72.19
2023-02-28T10:05:28.836Z,77.67
2023-02-28T10:06:28.786Z,82.02
2023-02-28T10:07:28.942Z,80.57
2023-02-28T10:08:28.815Z,77.50
2023-02-28T10:09:28.615Z,77.02
2023-02-28T10:10:28.748Z,76.70
2023-02-28T10:11:29.037Z,79.28
2023-02-28T10:12:28.725Z,79.76
2023-02-28T10:13:28.693Z,77.99
2023-02-28T10:14:28.734Z,83.31
2023-02-28T10:15:28.976Z,81.86
2023-02-28T10:16:29.446Z,82.50
2023-02-28T10:17:28.933Z,83.31
2023-02-28T10:18:28.664Z,82.50
2023-02-28T10:19:28.574Z,82.98
2023-02-28T10:20:28.678Z,87.98
2023-02-28T10:21:28.630Z,89.27
2023-02-28T10:22:28.565Z,92.81
2023-02-28T10:23:28.574Z,84.27
2023-02-28T10:24:28.421Z,88.46
2023-02-28T10:25:28.554Z,86.53
2023-02-28T10:26:28.748Z,84.92
2023-02-28T10:27:28.793Z,87.50
2023-02-28T10:28:28.774Z,88.30
2023-02-28T10:29:28.543Z,88.14
2023-02-28T10:30:28.484Z,87.33
2023-02-28T10:31:28.654Z,88.46
2023-02-28T10:32:28.436Z,88.30
2023-02-28T10:33:28.566Z,88.46
2023-02-28T10:34:28.619Z,89.75
2023-02-28T10:35:28.784Z,86.85
2023-02-28T10:36:28.782Z,89.91
2023-02-28T10:37:28.355Z,82.50
2023-02-28T10:38:28.994Z,86.69
2023-02-28T10:39:28.434Z,89.91
2023-02-28T10:40:28.524Z,88.14
2023-02-28T10:41:28.245Z,88.46
2023-02-28T10:42:28.428Z,85.08
2023-02-28T10:43:28.247Z,94.10
2023-02-28T10:44:28.435Z,86.85
2023-02-28T10:45:28.305Z,86.53
2023-02-28T10:46:28.781Z,87.01
2023-02-28T10:47:28.274Z,81.69
2023-02-28T10:48:28.865Z,58.33
2023-02-28T10:49:28.273Z,81.21
2023-02-28T10:50:28.437Z,77.50
2023-02-28T10:51:28.285Z,68.80
2023-02-28T10:52:28.183Z,68.32
2023-02-28T10:53:28.334Z,83.95
2023-02-28T10:54:28.139Z,88.30
2023-02-28T10:55:28.425Z,85.24
2023-02-28T10:56:28.369Z,82.82
2023-02-28T10:57:28.276Z,84.27
2023-02-28T10:58:28.124Z,50.43
2023-02-28T10:59:28.324Z,59.14
2023-02-28T11:00:28.210Z,49.95
2023-02-28T11:01:28.298Z,63.33
2023-02-28T11:02:28.125Z,75.25
2023-02-28T11:03:28.175Z,71.22
2023-02-28T11:04:28.144Z,61.23
2023-02-28T11:05:28.173Z,61.71
2023-02-28T11:06:28.603Z,61.39
2023-02-28T11:07:37.294Z,61.07
2023-02-28T11:08:28.161Z,71.70
2023-02-28T11:09:27.911Z,76.54
2023-02-28T11:10:28.232Z,68.96
2023-02-28T11:11:28.867Z,82.18
2023-02-28T11:12:28.226Z,74.28
2023-02-28T11:13:27.969Z,74.28
2023-02-28T11:14:28.261Z,74.28
2023-02-28T11:15:28.338Z,77.83
2023-02-28T11:16:28.090Z,79.60
2023-02-28T11:17:28.032Z,72.83
2023-02-28T11:18:28.090Z,77.67
2023-02-28T11:19:27.930Z,77.50
2023-02-28T11:20:27.998Z,74.28
2023-02-28T11:21:28.544Z,77.83
2023-02-28T11:22:28.200Z,75.41
2023-02-28T11:23:27.950Z,75.09
2023-02-28T11:24:27.722Z,73.96
2023-02-28T11:25:27.929Z,73.48
2023-02-28T11:26:28.019Z,73.96
2023-02-28T11:27:27.938Z,73.32
2023-02-28T11:28:28.240Z,74.44
2023-02-28T11:29:27.977Z,77.18
2023-02-28T11:30:27.817Z,75.09
2023-02-28T11:31:28.512Z,71.70
2023-02-28T11:32:27.830Z,70.74
2023-02-28T11:33:27.956Z,77.99
2023-02-28T11:34:27.764Z,74.44
2023-02-28T11:35:27.909Z,76.05
2023-02-28T11:36:27.864Z,70.90
2023-02-28T11:37:27.876Z,71.06
2023-02-28T11:38:27.756Z,70.58
2023-02-28T11:39:27.588Z,69.93
2023-02-28T11:40:27.777Z,69.61
2023-02-28T11:41:28.231Z,70.58
2023-02-28T11:42:27.837Z,70.09
2023-02-28T11:43:27.649Z,75.25
2023-02-28T11:44:27.766Z,78.63
2023-02-28T11:45:27.617Z,73.96
2023-02-28T11:46:27.858Z,79.28
2023-02-28T11:47:27.656Z,79.12
2023-02-28T11:48:27.723Z,72.83
2023-02-28T11:49:27.606Z,72.99
2023-02-28T11:50:27.780Z,73.48
2023-02-28T11:51:28.202Z,78.47
2023-02-28T11:52:27.708Z,71.87
2023-02-28T11:53:28.257Z,73.96
2023-02-28T11:54:27.458Z,73.48
2023-02-28T11:55:27.710Z,70.90
2023-02-28T11:56:27.542Z,71.54
2023-02-28T11:57:27.589Z,71.87
2023-02-28T11:58:27.539Z,70.74
2023-02-28T11:59:27.623Z,70.09
2023-02-28T12:00:27.474Z,70.90
2023-02-28T12:01:28.065Z,73.32
2023-02-28T12:02:27.522Z,73.96
2023-02-28T12:03:27.616Z,77.83
2023-02-28T12:04:27.508Z,71.70
2023-02-28T12:05:27.577Z,81.05
2023-02-28T12:06:27.563Z,72.19
2023-02-28T12:07:27.505Z,70.09
2023-02-28T12:08:27.611Z,71.87
2023-02-28T12:09:27.325Z,71.22
2023-02-28T12:10:27.525Z,69.45
2023-02-28T12:11:28.152Z,69.93
2023-02-28T12:12:27.549Z,69.61
2023-02-28T12:13:27.687Z,71.87
2023-02-28T12:14:27.585Z,72.35
2023-02-28T12:15:27.287Z,70.09
2023-02-28T12:16:27.502Z,69.29
2023-02-28T12:17:27.377Z,69.13
2023-02-28T12:18:27.439Z,70.09
2023-02-28T12:19:27.361Z,70.90
2023-02-28T12:20:27.399Z,72.99
2023-02-28T12:21:27.746Z,70.42
2023-02-28T12:22:27.380Z,68.96
2023-02-28T12:23:27.618Z,69.77
2023-02-28T12:24:27.193Z,70.25
2023-02-28T12:25:27.352Z,71.54
2023-02-28T12:26:27.611Z,51.56
2023-02-28T12:27:27.786Z,54.14
2023-02-28T12:28:27.184Z,55.59
2023-02-28T12:29:27.609Z,48.34
2023-02-28T12:30:27.220Z,63.33
2023-02-28T12:31:28.255Z,47.70
2023-02-28T12:32:27.243Z,57.69
2023-02-28T12:33:27.336Z,62.84
2023-02-28T12:34:27.253Z,60.59
2023-02-28T12:35:27.196Z,58.01
2023-02-28T12:36:27.204Z,59.94
2023-02-28T12:37:27.235Z,53.33
2023-02-28T12:38:27.157Z,53.98
2023-02-28T12:39:27.050Z,61.23
2023-02-28T12:40:27.447Z,49.63
2023-02-28T12:41:27.927Z,77.50
2023-02-28T12:42:27.115Z,70.90
2023-02-28T12:43:27.495Z,69.13
2023-02-28T12:44:27.646Z,52.05
2023-02-28T12:45:27.412Z,68.96
2023-02-28T12:46:27.412Z,62.36
2023-02-28T12:47:27.449Z,61.23
2023-02-28T12:48:27.164Z,70.90
2023-02-28T12:49:27.276Z,75.73
2023-02-28T12:50:27.435Z,73.32
2023-02-28T12:51:29.743Z,76.54
2023-02-28T12:52:27.455Z,77.18